Accueil
METAR-TAF:

METAR-TAF

Aéroports :

Tri-City Airport

Parsons, Kansas, États-Unis

latitude: 37-19-40N, longitude: 095-30-15W, altitude: 274 m

Observation

Le bulletin a été fait il y a 46 minutes, à 10:52 UTC
Vent calme
Température -8°C
Humidité 92%
Pression 1027 hPa
Visibilité: 6.4 km
Ciel clair
brume

METAR: KPPF 101052Z AUTO 00000KT 4SM BR CLR M08/M09 A3033 RMK AO2 SLP279 I1000 T10781089 $

Heure: 05:38 (11:38 UTC)


TAF: absent

Observations et prévisions météorologiques de plus de 4000 aéroports (messages METAR et TAF).

Les stations disponibles sont représentées par des disques jaunes et rouges sur la carte.

Passer la souris dessus pour voir le nom de la station.

Cliquer dessus pour voir les observations et prévisions météorologiques.

Pour changer de carte: cliquez sur les boutons verts avec une croix noire pour zoomer, sur le bouton vert avec un tiret pour effectuer un zoom arrière, ou sur les flèches vertes pour les cartes adjacentes.


METAR-TAF: